Time;durP1;ratioP1;P1;durP2;ratioP2;P2;SDS_P1;SDS_P2;PMS_P1;PMS_P2;Temp;Humidity;BMP_temperature;BMP_pressure;BME280_temperature;BME280_humidity;BME280_pressure;Samples;Min_cycle;Max_cycle;Signal;HPM_P1;HPM_P2
2023/01/18 00:00:46;;;;;;;9.30;5.03;;;2.10;99.90;;;;;;5051473;28;20033;-71
2023/01/18 00:03:12;;;;;;;12.90;4.43;;;2.20;99.90;;;;;;5051733;28;20033;-71
2023/01/18 00:05:42;;;;;;;10.88;4.43;;;2.20;99.90;;;;;;5051914;28;20028;-71
2023/01/18 00:08:12;;;;;;;10.77;4.90;;;2.30;99.90;;;;;;5052789;28;20028;-71
2023/01/18 00:10:38;;;;;;;11.70;5.30;;;2.20;99.90;;;;;;5052432;28;20017;-71
2023/01/18 00:13:04;;;;;;;11.07;4.40;;;2.20;99.90;;;;;;5052340;28;20047;-71
2023/01/18 00:15:31;;;;;;;9.68;4.50;;;2.10;99.90;;;;;;5052019;28;20021;-71
2023/01/18 00:17:57;;;;;;;8.93;4.85;;;2.10;99.90;;;;;;5052812;28;20032;-71
2023/01/18 00:20:25;;;;;;;12.23;4.32;;;2.20;99.90;;;;;;5052937;28;20412;-71
2023/01/18 00:22:51;;;;;;;13.38;4.97;;;2.20;99.90;;;;;;5051331;28;20024;-71
2023/01/18 00:25:18;;;;;;;13.05;4.72;;;2.20;99.90;;;;;;5052629;28;20104;-71
2023/01/18 00:27:46;;;;;;;10.93;4.97;;;2.20;99.90;;;;;;5052425;28;20387;-71
2023/01/18 00:33:34;;;;;;;10.88;4.97;;;2.30;99.90;;;;;;5056284;28;20032;-71
2023/01/18 00:36:02;;;;;;;9.57;4.80;;;2.30;99.90;;;;;;5054774;28;20017;-71
2023/01/18 00:38:28;;;;;;;8.90;4.07;;;2.40;99.90;;;;;;5056252;28;20021;-71
2023/01/18 00:40:55;;;;;;;9.38;4.35;;;2.40;99.90;;;;;;5054680;28;20029;-71
2023/01/18 00:43:38;;;;;;;6.10;3.50;;;2.40;99.90;;;;;;5054517;28;20024;-71
2023/01/18 00:46:05;;;;;;;18.42;6.13;;;2.30;99.90;;;;;;5055843;28;20029;-71
2023/01/18 00:48:31;;;;;;;11.27;4.30;;;2.30;99.90;;;;;;5054420;28;20110;-71
2023/01/18 00:50:56;;;;;;;9.18;4.65;;;2.20;99.90;;;;;;5055695;28;20048;-71
2023/01/18 00:53:22;;;;;;;11.60;4.47;;;2.20;99.90;;;;;;5054673;28;20017;-72
2023/01/18 00:55:48;;;;;;;12.27;4.35;;;2.30;99.90;;;;;;5055564;28;20035;-72
2023/01/18 00:58:13;;;;;;;11.73;4.20;;;2.30;99.90;;;;;;5054295;28;20021;-72
2023/01/18 01:00:40;;;;;;;12.13;4.68;;;2.30;99.90;;;;;;5055383;28;20086;-72
2023/01/18 01:03:06;;;;;;;7.43;4.10;;;2.30;99.90;;;;;;5055501;28;20025;-72
2023/01/18 01:08:16;;;;;;;7.75;4.45;;;2.30;99.90;;;;;;5055674;28;20067;-71
2023/01/18 01:10:46;;;;;;;11.02;3.92;;;2.20;99.90;;;;;;5055575;28;20049;-71
2023/01/18 01:26:58;;;;;;;8.55;3.95;;;2.30;99.90;;;;;;5055287;28;20079;-71
2023/01/18 01:29:23;;;;;;;8.48;4.45;;;2.30;99.90;;;;;;5053940;28;20025;-71
2023/01/18 01:31:49;;;;;;;12.43;4.47;;;2.30;99.90;;;;;;5055013;28;20044;-71
2023/01/18 01:34:14;;;;;;;11.43;3.90;;;2.30;99.90;;;;;;5054851;28;20025;-71
2023/01/18 01:36:40;;;;;;;11.82;4.75;;;2.20;99.90;;;;;;5055118;28;20029;-71
2023/01/18 01:39:07;;;;;;;8.32;4.00;;;2.10;99.90;;;;;;5053429;28;20028;-71
2023/01/18 01:41:34;;;;;;;8.82;4.18;;;2.10;99.90;;;;;;5053457;28;20086;-71
2023/01/18 01:44:03;;;;;;;10.05;3.67;;;2.10;99.90;;;;;;5053670;28;20024;-72
2023/01/18 01:46:45;;;;;;;10.27;4.15;;;2.10;99.90;;;;;;5054394;28;20029;-72
2023/01/18 01:49:14;;;;;;;9.85;4.47;;;2.00;99.90;;;;;;5054716;28;20021;-71
2023/01/18 01:51:50;;;;;;;7.68;3.55;;;2.10;99.90;;;;;;5069996;28;20025;-71
2023/01/18 01:54:22;;;;;;;8.15;3.88;;;2.10;99.90;;;;;;5053301;28;20025;-71
2023/01/18 01:56:50;;;;;;;8.98;4.00;;;2.10;99.90;;;;;;5054586;28;20025;-71
2023/01/18 01:59:17;;;;;;;7.50;3.92;;;2.10;99.90;;;;;;5053244;28;20033;-71
2023/01/18 02:01:45;;;;;;;8.90;3.63;;;2.20;99.90;;;;;;5054450;28;20028;-71
2023/01/18 02:04:11;;;;;;;12.50;4.18;;;2.20;99.90;;;;;;5054834;28;20031;-71
2023/01/18 02:06:39;;;;;;;11.68;3.60;;;2.20;99.90;;;;;;5053052;28;20063;-71
2023/01/18 02:09:11;;;;;;;10.73;4.43;;;2.20;99.90;;;;;;5053648;28;20031;-71
2023/01/18 02:11:37;;;;;;;6.45;3.55;;;2.20;99.90;;;;;;5053306;28;20040;-71
2023/01/18 02:14:09;;;;;;;7.97;4.20;;;2.10;99.90;;;;;;5053516;28;20064;-72
2023/01/18 02:16:59;;;;;;;17.08;3.85;;;2.10;99.90;;;;;;5053783;28;20037;-72
2023/01/18 02:19:24;;;;;;;8.43;3.58;;;2.10;99.90;;;;;;5052775;28;20048;-72
2023/01/18 02:22:03;;;;;;;6.70;3.40;;;2.00;99.90;;;;;;5054510;28;20028;-72
2023/01/18 02:24:55;;;;;;;8.38;3.80;;;2.10;99.90;;;;;;5054233;28;20078;-72
2023/01/18 02:27:45;;;;;;;11.27;3.78;;;2.20;99.90;;;;;;5052553;28;20036;-72
2023/01/18 02:30:20;;;;;;;7.90;3.60;;;2.20;99.90;;;;;;5053434;28;20036;-72
2023/01/18 02:33:00;;;;;;;5.30;2.95;;;2.30;99.90;;;;;;5053489;28;20057;-72
2023/01/18 02:35:42;;;;;;;11.70;4.20;;;2.30;99.90;;;;;;5053110;28;20025;-72
2023/01/18 02:38:40;;;;;;;7.65;3.03;;;2.30;99.90;;;;;;5052517;28;20021;-72
2023/01/18 02:41:21;;;;;;;6.60;3.53;;;2.30;99.90;;;;;;5052454;28;20044;-72
2023/01/18 02:46:34;;;;;;;6.10;3.75;;;2.30;99.90;;;;;;5054027;28;20040;-72
2023/01/18 02:49:30;;;;;;;5.07;3.40;;;2.20;99.90;;;;;;5053684;28;20028;-72
2023/01/18 02:52:07;;;;;;;7.85;2.97;;;2.20;99.90;;;;;;5052784;28;20087;-71
2023/01/18 02:54:37;;;;;;;9.20;3.70;;;2.20;99.90;;;;;;5052069;28;20028;-71
2023/01/18 02:57:08;;;;;;;5.95;2.65;;;2.30;99.90;;;;;;5052268;28;20025;-72
2023/01/18 02:59:45;;;;;;;6.97;2.75;;;2.30;99.90;;;;;;5053373;28;20025;-72
2023/01/18 03:02:15;;;;;;;8.70;2.97;;;2.30;99.90;;;;;;5052083;28;20514;-72
2023/01/18 03:04:55;;;;;;;12.73;2.40;;;2.30;99.90;;;;;;5052863;28;20040;-71
2023/01/18 03:07:34;;;;;;;14.57;3.25;;;2.30;99.90;;;;;;5052524;28;20078;-71
2023/01/18 03:10:04;;;;;;;9.98;2.72;;;2.30;99.90;;;;;;5053526;28;20029;-71
2023/01/18 03:12:58;;;;;;;6.78;2.40;;;2.20;99.90;;;;;;5053171;28;20060;-71
2023/01/18 03:15:52;;;;;;;5.75;2.45;;;2.20;99.90;;;;;;5053120;28;20021;-71
2023/01/18 03:18:33;;;;;;;4.47;2.08;;;2.20;99.90;;;;;;5052465;28;20029;-71
2023/01/18 03:21:04;;;;;;;6.93;2.42;;;2.20;99.90;;;;;;5052711;28;20021;-71
2023/01/18 03:23:40;;;;;;;7.85;2.03;;;2.30;99.90;;;;;;5053356;28;20036;-71
2023/01/18 03:26:13;;;;;;;5.95;2.35;;;2.20;99.90;;;;;;5052929;28;20032;-71
2023/01/18 03:34:39;;;;;;;5.25;2.47;;;2.30;99.90;;;;;;5053305;28;20039;-71
2023/01/18 03:37:13;;;;;;;7.20;2.13;;;2.30;99.90;;;;;;5051685;28;20392;-71
2023/01/18 03:39:43;;;;;;;5.55;2.25;;;2.30;99.90;;;;;;5051684;28;20032;-71
2023/01/18 03:42:13;;;;;;;6.22;2.13;;;2.30;99.90;;;;;;5051678;28;20032;-71
2023/01/18 03:45:04;;;;;;;4.10;2.15;;;2.30;99.90;;;;;;5051724;28;20036;-71
2023/01/18 03:47:30;;;;;;;4.77;2.27;;;2.30;99.90;;;;;;5052921;28;20071;-71
2023/01/18 03:49:56;;;;;;;3.95;2.25;;;2.30;99.90;;;;;;5051576;28;20021;-71
2023/01/18 03:52:36;;;;;;;3.90;2.00;;;2.40;99.90;;;;;;5051324;28;20018;-71
2023/01/18 03:55:27;;;;;;;4.93;1.80;;;2.40;99.90;;;;;;5053182;28;20021;-71
2023/01/18 03:57:58;;;;;;;5.93;1.80;;;2.30;99.90;;;;;;5051531;28;20029;-71
2023/01/18 04:00:24;;;;;;;3.28;1.80;;;2.30;99.90;;;;;;5052283;28;20029;-71
2023/01/18 04:02:50;;;;;;;5.18;2.30;;;2.30;99.90;;;;;;5052495;28;20116;-71
2023/01/18 04:05:16;;;;;;;4.47;2.05;;;2.30;99.90;;;;;;5051264;28;20029;-70
2023/01/18 04:07:42;;;;;;;5.18;2.42;;;2.30;99.90;;;;;;5056730;28;20025;-71
2023/01/18 04:10:09;;;;;;;10.00;2.33;;;2.30;99.90;;;;;;5055202;28;20104;-71
2023/01/18 04:12:34;;;;;;;7.18;2.40;;;2.20;99.90;;;;;;5055366;28;20056;-71
2023/01/18 04:15:01;;;;;;;4.18;2.08;;;2.20;99.90;;;;;;5055286;28;20400;-71
2023/01/18 04:17:27;;;;;;;4.55;2.05;;;2.20;99.90;;;;;;5056455;28;20029;-71
2023/01/18 04:19:52;;;;;;;3.28;2.35;;;2.10;99.90;;;;;;5055141;28;20082;-71
2023/01/18 04:22:18;;;;;;;5.30;2.50;;;2.10;99.90;;;;;;5054983;28;20025;-71
2023/01/18 04:24:44;;;;;;;6.20;2.22;;;2.20;99.90;;;;;;5055262;28;20056;-70
2023/01/18 04:27:09;;;;;;;3.38;1.95;;;2.20;99.90;;;;;;5055138;28;20116;-71
2023/01/18 04:29:35;;;;;;;4.70;2.00;;;2.10;99.90;;;;;;5055416;28;20047;-71
2023/01/18 04:32:01;;;;;;;6.00;2.38;;;2.10;99.90;;;;;;5054928;28;20047;-71
2023/01/18 04:34:26;;;;;;;7.28;2.17;;;2.10;99.90;;;;;;5055136;28;20059;-71
2023/01/18 04:36:52;;;;;;;5.07;2.42;;;2.20;99.90;;;;;;5056239;28;20024;-71
2023/01/18 04:39:18;;;;;;;3.95;2.20;;;2.20;99.90;;;;;;5054889;28;20108;-71
2023/01/18 04:41:44;;;;;;;4.88;2.58;;;2.20;99.90;;;;;;5054852;28;20028;-71
2023/01/18 04:44:09;;;;;;;4.95;2.17;;;2.00;99.90;;;;;;5054730;28;20040;-71
2023/01/18 04:46:37;;;;;;;4.55;2.58;;;2.10;99.90;;;;;;5056069;28;20032;-71
2023/01/18 04:49:04;;;;;;;6.15;2.95;;;2.10;99.90;;;;;;5054955;28;20055;-71
2023/01/18 04:51:30;;;;;;;6.72;2.95;;;2.20;99.90;;;;;;5054614;28;20024;-71
2023/01/18 04:53:57;;;;;;;5.82;2.60;;;2.20;99.90;;;;;;5054732;28;20021;-71
2023/01/18 04:56:23;;;;;;;6.32;2.60;;;2.10;99.90;;;;;;5054304;28;20035;-71
2023/01/18 04:58:51;;;;;;;5.55;2.20;;;2.00;99.90;;;;;;5054444;28;20020;-71
2023/01/18 05:01:17;;;;;;;7.18;2.80;;;2.10;99.90;;;;;;5055613;28;20021;-71
2023/01/18 05:03:42;;;;;;;6.88;3.03;;;2.10;99.90;;;;;;5054348;28;20021;-71
2023/01/18 05:06:10;;;;;;;4.78;2.47;;;2.00;99.90;;;;;;5054235;28;20037;-71
2023/01/18 05:08:39;;;;;;;6.38;2.65;;;2.10;99.90;;;;;;5055384;28;20047;-71
2023/01/18 05:11:10;;;;;;;5.78;2.97;;;2.00;99.90;;;;;;5054416;28;20025;-70
2023/01/18 05:13:36;;;;;;;6.95;3.00;;;2.00;99.90;;;;;;5053895;28;20044;-70
2023/01/18 05:16:03;;;;;;;5.78;3.22;;;2.00;99.90;;;;;;5054082;28;20023;-71
2023/01/18 05:18:29;;;;;;;7.88;3.15;;;2.00;99.90;;;;;;5053976;28;20100;-71
2023/01/18 05:20:54;;;;;;;4.10;2.70;;;1.90;99.90;;;;;;5053849;28;20052;-70
2023/01/18 05:23:20;;;;;;;4.63;2.22;;;1.90;99.90;;;;;;5055186;28;20028;-70
2023/01/18 05:25:55;;;;;;;8.70;2.70;;;1.90;99.90;;;;;;5054136;28;20021;-70
2023/01/18 05:28:23;;;;;;;3.50;2.33;;;1.90;99.90;;;;;;5055416;28;20459;-71
2023/01/18 05:30:49;;;;;;;4.18;2.28;;;1.90;99.90;;;;;;5055343;28;20029;-71
2023/01/18 05:33:15;;;;;;;4.07;2.28;;;1.90;99.90;;;;;;5054910;28;20032;-71
2023/01/18 05:35:55;;;;;;;5.03;2.60;;;1.70;99.90;;;;;;5054990;28;20484;-71
2023/01/18 05:38:21;;;;;;;6.47;2.55;;;1.70;99.90;;;;;;5053708;28;20025;-71
2023/01/18 05:40:49;;;;;;;6.85;2.95;;;1.70;99.90;;;;;;5053596;28;20102;-70
2023/01/18 05:43:15;;;;;;;4.30;1.95;;;1.80;99.90;;;;;;5053673;28;20051;-70
2023/01/18 05:45:41;;;;;;;9.30;2.55;;;1.80;99.90;;;;;;5053810;28;20020;-70
2023/01/18 05:48:08;;;;;;;7.57;3.55;;;1.90;99.90;;;;;;5051938;28;20051;-71
2023/01/18 05:50:33;;;;;;;4.45;2.92;;;1.90;99.90;;;;;;5034748;28;20079;-71
2023/01/18 05:52:59;;;;;;;7.22;2.65;;;1.90;99.90;;;;;;5050032;28;20017;-71
2023/01/18 05:55:26;;;;;;;6.47;3.22;;;1.90;99.90;;;;;;5033708;28;20079;-71
2023/01/18 05:57:52;;;;;;;5.20;3.10;;;1.90;99.90;;;;;;5033341;28;20031;-71
2023/01/18 06:00:17;;;;;;;6.28;3.20;;;1.80;99.90;;;;;;5034067;28;20116;-71
2023/01/18 06:02:43;;;;;;;7.13;3.33;;;1.80;99.90;;;;;;5034409;28;20026;-71
2023/01/18 06:05:09;;;;;;;8.45;2.58;;;1.80;99.90;;;;;;5033407;28;20021;-71
2023/01/18 06:07:34;;;;;;;7.68;2.42;;;1.70;99.90;;;;;;5033911;28;20030;-71
2023/01/18 06:10:00;;;;;;;7.88;2.78;;;1.60;99.90;;;;;;5035033;28;20033;-71
2023/01/18 06:12:25;;;;;;;6.45;2.50;;;1.60;99.90;;;;;;5060250;22;20061;-69
2023/01/18 06:14:51;;;;;;;7.32;2.90;;;1.50;99.90;;;;;;5012889;28;20038;-69
2023/01/18 06:17:16;;;;;;;7.90;2.85;;;1.50;99.90;;;;;;5014010;28;20080;-67
2023/01/18 06:19:42;;;;;;;4.65;2.47;;;1.40;99.90;;;;;;5013121;28;20506;-67
2023/01/18 06:22:08;;;;;;;7.32;3.47;;;1.40;99.90;;;;;;5013464;28;20029;-67
2023/01/18 06:24:33;;;;;;;5.57;2.63;;;1.40;99.90;;;;;;5013485;28;20026;-67
2023/01/18 06:26:59;;;;;;;8.98;2.78;;;1.50;99.90;;;;;;5012845;28;20499;-67
2023/01/18 06:29:25;;;;;;;8.15;3.20;;;1.50;99.90;;;;;;5012439;28;20025;-67
2023/01/18 06:31:50;;;;;;;7.35;3.10;;;1.40;99.90;;;;;;5014106;28;20075;-67
2023/01/18 06:34:16;;;;;;;9.02;3.35;;;1.40;99.90;;;;;;5012740;28;20017;-68
2023/01/18 06:36:43;;;;;;;8.35;3.08;;;1.50;99.90;;;;;;5012755;28;20121;-67
2023/01/18 06:39:09;;;;;;;7.38;2.40;;;1.50;99.90;;;;;;5014090;28;20049;-67
2023/01/18 06:41:35;;;;;;;5.28;2.58;;;1.40;99.90;;;;;;5012742;28;20401;-67
2023/01/18 06:44:01;;;;;;;7.55;2.85;;;1.40;99.90;;;;;;5013876;28;20495;-67
2023/01/18 06:46:27;;;;;;;5.60;3.00;;;1.30;99.90;;;;;;5013946;28;20058;-67
2023/01/18 06:48:53;;;;;;;8.90;3.22;;;1.30;99.90;;;;;;5012625;28;20500;-67
2023/01/18 06:51:19;;;;;;;8.77;3.00;;;1.40;99.90;;;;;;5013712;28;20022;-67
2023/01/18 06:53:44;;;;;;;11.18;3.38;;;1.50;99.90;;;;;;5013787;28;20092;-67
2023/01/18 06:56:11;;;;;;;7.95;2.97;;;1.60;99.90;;;;;;5013347;28;20076;-67
2023/01/18 06:58:37;;;;;;;7.72;3.42;;;1.60;99.90;;;;;;5012457;28;20026;-67
2023/01/18 07:01:02;;;;;;;9.02;2.92;;;1.60;99.90;;;;;;5012336;28;20392;-67
2023/01/18 07:03:29;;;;;;;6.15;3.17;;;1.70;99.90;;;;;;5013628;28;20029;-67
2023/01/18 07:05:56;;;;;;;8.60;2.60;;;1.70;99.90;;;;;;5013649;28;20095;-67
2023/01/18 07:08:23;;;;;;;7.30;2.63;;;1.60;99.90;;;;;;5012603;28;20025;-67
2023/01/18 07:10:49;;;;;;;17.48;3.50;;;1.60;99.90;;;;;;5013493;28;20029;-67
2023/01/18 07:13:14;;;;;;;8.05;3.15;;;1.60;99.90;;;;;;5012280;28;20037;-67
2023/01/18 07:15:40;;;;;;;8.18;3.33;;;1.60;99.90;;;;;;5012173;28;20021;-67
2023/01/18 07:18:42;;;;;;;8.23;2.97;;;1.60;99.90;;;;;;5013398;28;20022;-67
2023/01/18 07:21:09;;;;;;;7.93;3.10;;;1.60;99.90;;;;;;5014022;28;20026;-67
2023/01/18 07:23:37;;;;;;;11.85;3.85;;;1.60;99.90;;;;;;5012550;28;20061;-67
2023/01/18 07:26:05;;;;;;;7.60;3.92;;;1.70;99.90;;;;;;5012160;28;20056;-67
2023/01/18 07:28:32;;;;;;;11.95;4.57;;;1.70;99.90;;;;;;5013321;28;20033;-67
2023/01/18 07:30:59;;;;;;;8.60;4.53;;;1.70;99.90;;;;;;5013385;28;20050;-67
2023/01/18 07:33:24;;;;;;;6.95;3.95;;;1.60;99.90;;;;;;5013263;28;20105;-67
2023/01/18 07:35:54;;;;;;;15.32;3.97;;;1.60;99.90;;;;;;5012102;28;20060;-67
2023/01/18 07:38:21;;;;;;;10.02;3.80;;;1.60;99.90;;;;;;5012593;28;20030;-67
2023/01/18 07:40:47;;;;;;;11.13;3.78;;;1.60;99.90;;;;;;5014320;28;20029;-67
2023/01/18 07:43:14;;;;;;;8.48;3.70;;;1.60;99.90;;;;;;5016094;28;20034;-67
2023/01/18 07:45:40;;;;;;;12.80;4.38;;;1.50;99.90;;;;;;5016227;28;20036;-67
2023/01/18 07:48:06;;;;;;;13.60;4.15;;;1.50;99.90;;;;;;5017271;28;20026;-67
2023/01/18 07:50:34;;;;;;;8.48;3.45;;;1.40;99.90;;;;;;5016065;28;20075;-67
2023/01/18 07:53:03;;;;;;;13.10;3.85;;;1.30;99.90;;;;;;5017166;28;20054;-67
2023/01/18 07:55:31;;;;;;;7.60;3.83;;;1.40;99.90;;;;;;5016008;28;20025;-67
2023/01/18 07:57:56;;;;;;;8.95;3.70;;;1.40;99.90;;;;;;5015682;28;20052;-67
2023/01/18 08:00:22;;;;;;;8.30;2.97;;;1.40;99.90;;;;;;5015673;28;20396;-67
2023/01/18 08:02:51;;;;;;;14.02;3.63;;;1.40;99.90;;;;;;5015568;28;20026;-67
2023/01/18 08:05:22;;;;;;;18.33;3.63;;;1.50;99.90;;;;;;5015854;28;20022;-67
2023/01/18 08:07:52;;;;;;;9.88;3.67;;;1.50;99.90;;;;;;5015586;28;20030;-67
2023/01/18 08:10:18;;;;;;;7.63;3.58;;;1.50;99.90;;;;;;5016846;28;20097;-67
2023/01/18 08:12:44;;;;;;;9.23;3.08;;;1.50;99.90;;;;;;5015262;28;20060;-67
2023/01/18 08:15:10;;;;;;;9.90;3.97;;;1.50;99.90;;;;;;5015446;28;20049;-67
2023/01/18 08:17:36;;;;;;;12.20;3.67;;;1.50;99.90;;;;;;5016823;28;20034;-67
2023/01/18 08:20:04;;;;;;;7.55;3.42;;;1.50;99.90;;;;;;5015896;28;20026;-67
2023/01/18 08:22:30;;;;;;;12.60;3.67;;;1.50;99.90;;;;;;5016420;28;20030;-67
2023/01/18 08:24:55;;;;;;;11.68;3.78;;;1.50;99.90;;;;;;5015194;28;20488;-67
2023/01/18 08:27:21;;;;;;;7.18;3.90;;;1.50;99.90;;;;;;5015715;28;20025;-67
2023/01/18 08:29:47;;;;;;;12.77;4.40;;;1.50;99.90;;;;;;5015715;28;20376;-67
2023/01/18 08:32:13;;;;;;;13.38;4.10;;;1.60;99.90;;;;;;5015345;28;20030;-67
2023/01/18 08:34:38;;;;;;;9.07;4.03;;;1.60;99.90;;;;;;5015233;28;20112;-67
2023/01/18 08:37:04;;;;;;;9.93;4.45;;;1.60;99.90;;;;;;5014970;28;20060;-67
2023/01/18 08:39:30;;;;;;;7.90;3.70;;;1.70;99.90;;;;;;5014961;28;20038;-67
2023/01/18 08:41:56;;;;;;;14.68;4.28;;;1.80;99.90;;;;;;5015256;28;20026;-67
2023/01/18 08:44:22;;;;;;;9.95;4.47;;;1.80;99.90;;;;;;5014767;28;20034;-67
2023/01/18 08:46:48;;;;;;;10.80;3.85;;;1.80;99.90;;;;;;5016031;28;20029;-67
2023/01/18 08:49:15;;;;;;;9.25;4.35;;;1.90;99.90;;;;;;5014797;28;20029;-67
2023/01/18 08:51:40;;;;;;;8.93;4.00;;;2.00;99.90;;;;;;5015223;28;20026;-67
2023/01/18 08:54:06;;;;;;;10.88;4.65;;;2.10;99.90;;;;;;5014928;28;20484;-67
2023/01/18 08:56:32;;;;;;;15.38;4.22;;;2.20;99.90;;;;;;5014565;28;20029;-67
2023/01/18 08:58:58;;;;;;;13.73;4.40;;;2.30;99.90;;;;;;5014625;28;20026;-67
2023/01/18 09:01:24;;;;;;;13.50;4.88;;;2.30;99.90;;;;;;5014607;28;20026;-67
2023/01/18 09:03:53;;;;;;;9.68;4.65;;;2.20;99.90;;;;;;5015627;28;20022;-67
2023/01/18 09:06:19;;;;;;;21.33;5.30;;;2.30;99.90;;;;;;5015201;28;20068;-67
2023/01/18 09:08:48;;;;;;;12.50;5.90;;;2.30;99.90;;;;;;5014411;28;20030;-67
2023/01/18 09:11:14;;;;;;;15.57;6.40;;;2.40;99.90;;;;;;5014393;28;20022;-66
2023/01/18 09:13:40;;;;;;;11.68;4.32;;;2.40;99.90;;;;;;5014197;28;20029;-66
2023/01/18 09:16:08;;;;;;;9.88;3.97;;;2.50;99.90;;;;;;5015764;28;20033;-66
2023/01/18 09:18:33;;;;;;;7.85;4.07;;;2.50;99.90;;;;;;5014618;28;20018;-66
2023/01/18 09:21:08;;;;;;;8.90;4.05;;;2.60;99.90;;;;;;5014473;28;20022;-66
2023/01/18 09:23:35;;;;;;;9.77;4.30;;;2.60;99.90;;;;;;5014257;28;20022;-66
2023/01/18 09:26:07;;;;;;;10.80;3.85;;;2.50;99.90;;;;;;5015550;28;20076;-66
2023/01/18 09:28:33;;;;;;;9.02;3.42;;;2.50;99.90;;;;;;5014955;28;20121;-65
2023/01/18 09:31:04;;;;;;;14.43;4.40;;;2.70;99.90;;;;;;5015136;28;20022;-65
2023/01/18 09:33:30;;;;;;;8.98;3.95;;;2.70;99.90;;;;;;5014504;28;20032;-66
2023/01/18 09:36:00;;;;;;;13.75;4.97;;;2.70;99.90;;;;;;5015061;28;20025;-66
2023/01/18 09:38:25;;;;;;;12.48;4.35;;;2.70;99.90;;;;;;5014138;28;20036;-66
2023/01/18 09:40:52;;;;;;;6.78;3.75;;;2.50;99.90;;;;;;5015176;28;20022;-66
2023/01/18 09:43:27;;;;;;;10.50;4.53;;;2.40;99.90;;;;;;5013812;28;20373;-65
2023/01/18 09:45:54;;;;;;;10.55;4.50;;;2.40;99.90;;;;;;5015094;28;20069;-65
2023/01/18 09:48:34;;;;;;;11.23;4.47;;;2.50;99.90;;;;;;5013945;28;20048;-65
2023/01/18 09:51:08;;;;;;;9.80;4.47;;;2.60;99.90;;;;;;5014863;28;20014;-65
2023/01/18 09:53:55;;;;;;;9.18;3.45;;;2.80;99.90;;;;;;5013412;28;20024;-65
2023/01/18 09:56:26;;;;;;;6.38;3.78;;;2.90;99.90;;;;;;5015152;28;20094;-65
2023/01/18 09:59:06;;;;;;;7.13;3.47;;;2.90;99.90;;;;;;5014723;28;20077;-65
2023/01/18 10:01:34;;;;;;;9.35;4.07;;;3.00;99.90;;;;;;5014330;28;20022;-65
2023/01/18 10:04:07;;;;;;;16.25;4.38;;;3.00;99.90;;;;;;5013030;28;20029;-65
2023/01/18 10:06:56;;;;;;;8.07;4.30;;;3.10;99.90;;;;;;5014596;28;20025;-65
2023/01/18 10:09:24;;;;;;;9.27;3.70;;;3.30;99.90;;;;;;5013458;28;20026;-66
2023/01/18 10:12:23;;;;;;;10.93;3.92;;;3.30;99.90;;;;;;5014534;28;20033;-66
2023/01/18 10:15:16;;;;;;;10.00;3.67;;;3.30;99.90;;;;;;5005197;28;20573;-66
2023/01/18 10:17:43;;;;;;;11.73;4.50;;;3.30;99.90;;;;;;5013972;28;20034;-66
2023/01/18 10:20:32;;;;;;;8.50;3.90;;;3.40;99.90;;;;;;5013871;28;20028;-66
2023/01/18 10:23:20;;;;;;;9.80;4.15;;;3.50;99.90;;;;;;5013313;28;20079;-66
2023/01/18 10:25:54;;;;;;;12.20;5.68;;;3.40;99.90;;;;;;5013111;28;20052;-66
2023/01/18 10:28:28;;;;;;;15.25;4.63;;;3.40;99.90;;;;;;5013300;28;20034;-66
2023/01/18 10:31:22;;;;;;;6.50;3.58;;;3.50;99.90;;;;;;5014399;28;20047;-66
2023/01/18 10:33:53;;;;;;;12.07;4.72;;;3.60;99.90;;;;;;5012760;28;20022;-66
2023/01/18 10:36:34;;;;;;;10.20;4.40;;;3.70;99.90;;;;;;5012855;28;20022;-66
2023/01/18 10:39:04;;;;;;;14.57;4.43;;;3.70;99.90;;;;;;5014152;28;20026;-66
2023/01/18 10:41:40;;;;;;;10.40;4.38;;;3.90;99.90;;;;;;5012855;28;20304;-66
2023/01/18 10:44:08;;;;;;;7.57;3.95;;;3.90;99.90;;;;;;5013034;28;20036;-66
2023/01/18 10:46:34;;;;;;;9.38;4.25;;;3.90;99.90;;;;;;5012555;28;20028;-66
2023/01/18 10:48:59;;;;;;;10.75;4.05;;;3.90;99.90;;;;;;5012618;28;20022;-66
2023/01/18 10:51:34;;;;;;;6.22;3.90;;;3.90;99.90;;;;;;5012902;28;20032;-66
2023/01/18 10:54:20;;;;;;;10.40;3.97;;;4.10;99.90;;;;;;5013784;28;20026;-66
2023/01/18 10:56:46;;;;;;;10.90;4.20;;;4.20;99.90;;;;;;5012541;28;20036;-67
2023/01/18 10:59:24;;;;;;;6.63;3.80;;;4.40;99.90;;;;;;5013743;28;20029;-67
2023/01/18 11:01:53;;;;;;;6.72;3.47;;;4.40;99.90;;;;;;5012422;28;20026;-66
2023/01/18 11:04:31;;;;;;;8.50;3.55;;;4.50;99.90;;;;;;5013582;28;20060;-67
2023/01/18 11:07:00;;;;;;;6.85;3.95;;;4.60;99.90;;;;;;5013508;28;20021;-67
2023/01/18 11:09:47;;;;;;;10.35;4.57;;;4.60;99.90;;;;;;5013124;28;20068;-66
2023/01/18 11:12:37;;;;;;;9.43;4.43;;;4.70;99.90;;;;;;5013532;28;20029;-66
2023/01/18 11:15:15;;;;;;;8.85;4.00;;;4.70;99.90;;;;;;5013331;28;20127;-66
2023/01/18 11:17:43;;;;;;;10.65;5.43;;;4.70;99.90;;;;;;5012421;28;20061;-66
2023/01/18 11:20:54;;;;;;;8.15;4.60;;;4.70;99.90;;;;;;5013603;28;20036;-66
2023/01/18 11:23:24;;;;;;;16.67;5.38;;;4.80;99.90;;;;;;5009393;28;20037;-66
2023/01/18 11:26:10;;;;;;;15.50;5.93;;;4.80;99.90;;;;;;5013445;28;20018;-66
2023/01/18 11:28:38;;;;;;;8.63;4.78;;;4.90;99.90;;;;;;5013314;28;20022;-66
2023/01/18 11:31:21;;;;;;;14.27;5.03;;;5.00;99.90;;;;;;5012016;28;20026;-66
2023/01/18 11:33:50;;;;;;;14.23;5.72;;;4.70;99.90;;;;;;5011944;28;20026;-67
2023/01/18 11:36:20;;;;;;;13.60;5.00;;;4.80;99.90;;;;;;5012483;28;20018;-66
2023/01/18 11:38:46;;;;;;;14.57;5.50;;;5.00;99.90;;;;;;5011993;28;20022;-66
2023/01/18 11:41:20;;;;;;;12.05;4.85;;;5.30;99.90;;;;;;5012612;28;20018;-66
2023/01/18 11:44:05;;;;;;;11.50;5.00;;;5.50;99.90;;;;;;5013109;28;20029;-66
2023/01/18 11:46:42;;;;;;;12.98;4.65;;;5.50;99.90;;;;;;5011809;28;20032;-66
2023/01/18 11:49:28;;;;;;;13.82;5.30;;;5.40;99.90;;;;;;5012688;28;20026;-66
2023/01/18 11:52:01;;;;;;;14.30;5.13;;;5.60;99.90;;;;;;5011561;28;20053;-66
2023/01/18 11:54:42;;;;;;;8.10;3.85;;;5.80;99.90;;;;;;5013180;28;20021;-66
2023/01/18 11:57:11;;;;;;;9.43;3.80;;;5.70;99.90;;;;;;5011883;28;20060;-66
2023/01/18 11:59:44;;;;;;;6.68;3.72;;;5.70;99.90;;;;;;5013089;28;20056;-66
2023/01/18 12:02:31;;;;;;;10.35;4.13;;;5.80;99.90;;;;;;5013060;28;20033;-66
2023/01/18 12:05:15;;;;;;;10.38;3.55;;;5.80;99.90;;;;;;5012554;28;20026;-66
2023/01/18 12:07:56;;;;;;;14.80;5.05;;;5.90;99.90;;;;;;5012961;28;20018;-66
2023/01/18 12:10:24;;;;;;;13.07;4.55;;;6.10;99.90;;;;;;5012196;28;20028;-66
2023/01/18 12:13:09;;;;;;;13.68;4.55;;;6.20;99.90;;;;;;5012566;28;20057;-66
2023/01/18 12:15:56;;;;;;;6.90;3.35;;;6.00;99.90;;;;;;5012929;28;20018;-66
2023/01/18 12:18:37;;;;;;;11.13;4.72;;;6.00;99.90;;;;;;5012731;28;20075;-66
2023/01/18 12:21:11;;;;;;;10.18;3.88;;;6.00;99.90;;;;;;5012775;28;20032;-66
2023/01/18 12:24:07;;;;;;;10.05;3.78;;;5.90;99.90;;;;;;5012190;28;20040;-66
2023/01/18 12:26:36;;;;;;;9.40;4.05;;;6.00;99.90;;;;;;5012992;28;20056;-66
2023/01/18 12:29:19;;;;;;;16.35;4.40;;;5.70;99.90;;;;;;5016479;28;20022;-66
2023/01/18 12:31:53;;;;;;;10.90;4.07;;;5.70;99.90;;;;;;5016568;28;20022;-66
2023/01/18 12:34:29;;;;;;;8.02;3.53;;;5.60;99.90;;;;;;5015401;28;20022;-66
2023/01/18 12:37:26;;;;;;;8.18;4.03;;;5.50;99.90;;;;;;5016600;28;20117;-67
2023/01/18 12:39:58;;;;;;;6.22;3.70;;;5.50;99.90;;;;;;5015062;28;20033;-67
2023/01/18 12:42:39;;;;;;;9.95;3.70;;;5.70;99.90;;;;;;5016391;28;20034;-67
2023/01/18 12:45:26;;;;;;;9.90;3.50;;;5.80;99.90;;;;;;5016447;28;20037;-67
2023/01/18 12:48:03;;;;;;;10.55;3.65;;;5.70;99.90;;;;;;5016119;28;20025;-67
2023/01/18 12:50:36;;;;;;;5.68;3.15;;;5.80;99.90;;;;;;5016098;28;20392;-67
2023/01/18 12:53:09;;;;;;;9.32;3.35;;;6.00;99.90;;;;;;5015944;28;20014;-67
2023/01/18 12:55:38;;;;;;;14.13;4.53;;;6.00;99.90;;;;;;5014628;28;20477;-67
2023/01/18 12:58:05;;;;;;;11.35;3.40;;;6.10;99.90;;;;;;5014903;28;20397;-67
2023/01/18 13:00:38;;;;;;;11.30;3.80;;;6.20;99.90;;;;;;5014565;28;20036;-67
2023/01/18 13:03:10;;;;;;;15.25;4.10;;;6.10;99.90;;;;;;5015838;28;20026;-67
2023/01/18 13:05:51;;;;;;;9.13;3.53;;;6.10;99.90;;;;;;5014681;28;20053;-67
2023/01/18 13:08:48;;;;;;;9.80;3.67;;;6.10;99.90;;;;;;5014523;28;20101;-67
2023/01/18 13:11:19;;;;;;;14.82;3.75;;;6.00;99.90;;;;;;5014918;28;20030;-67
2023/01/18 13:13:48;;;;;;;9.52;3.10;;;6.10;99.90;;;;;;5014305;28;20036;-67
2023/01/18 13:16:33;;;;;;;9.98;3.47;;;6.10;99.90;;;;;;5015302;28;20029;-67
2023/01/18 13:19:02;;;;;;;12.30;3.47;;;6.20;99.90;;;;;;5014290;28;20041;-67
2023/01/18 13:21:50;;;;;;;14.55;4.13;;;6.10;99.90;;;;;;5014618;28;20125;-67
2023/01/18 13:24:53;;;;;;;10.68;3.67;;;6.00;99.90;;;;;;5014078;28;20022;-67
2023/01/18 13:27:19;;;;;;;5.80;3.45;;;6.00;99.90;;;;;;4954759;28;20483;-67
2023/01/18 13:29:45;;;;;;;6.80;3.15;;;6.30;99.90;;;;;;4954864;28;20038;-66
2023/01/18 13:32:28;;;;;;;6.13;3.08;;;6.30;99.90;;;;;;4954973;28;20115;-66
2023/01/18 13:34:59;;;;;;;8.00;3.22;;;6.30;99.90;;;;;;4954989;28;20042;-66
2023/01/18 13:37:48;;;;;;;7.38;3.63;;;6.20;99.90;;;;;;4954923;28;20129;-66
2023/01/18 13:40:21;;;;;;;9.70;2.90;;;6.20;99.90;;;;;;4938621;29;20071;-67
2023/01/18 13:42:47;;;;;;;7.25;2.90;;;6.00;99.90;;;;;;4955109;28;20058;-67